Time;durP1;ratioP1;P1;durP2;ratioP2;P2;SDS_P1;SDS_P2;PMS_P1;PMS_P2;Temp;Humidity;BMP_temperature;BMP_pressure;BME280_temperature;BME280_humidity;BME280_pressure;Samples;Min_cycle;Max_cycle;Signal;HPM_P1;HPM_P2
2023/06/12 00:04:10;;;;;;;6.82;2.83;;;13.60;93.10;;;;;;10405964;28;20259;-83
2023/06/12 00:09:12;;;;;;;3.55;2.95;;;13.60;90.40;;;;;;10406926;28;20250;-83
2023/06/12 00:14:15;;;;;;;4.00;2.78;;;13.60;91.20;;;;;;10388742;28;20700;-84
2023/06/12 00:19:18;;;;;;;2.17;1.98;;;13.70;92.10;;;;;;10408713;28;20265;-83
2023/06/12 00:24:21;;;;;;;4.07;2.10;;;13.90;93.80;;;;;;10413766;28;20308;-83
2023/06/12 00:29:24;;;;;;;3.83;2.70;;;14.10;94.70;;;;;;10413738;28;20259;-83
2023/06/12 00:34:26;;;;;;;3.15;2.30;;;14.10;89.70;;;;;;10411174;28;20235;-83
2023/06/12 00:39:29;;;;;;;2.85;2.58;;;14.20;90.80;;;;;;10395357;28;20257;-83
2023/06/12 00:44:31;;;;;;;8.20;2.70;;;14.40;89.10;;;;;;10395079;28;20263;-83
2023/06/12 00:49:34;;;;;;;3.55;3.25;;;14.50;89.60;;;;;;10410922;28;20301;-83
2023/06/12 00:54:37;;;;;;;5.55;3.28;;;14.40;83.20;;;;;;10395077;28;20253;-83
2023/06/12 00:59:41;;;;;;;4.07;3.20;;;14.30;84.80;;;;;;10412482;28;20254;-83
2023/06/12 01:04:46;;;;;;;4.22;3.15;;;14.10;81.40;;;;;;10393612;28;20244;-83
2023/06/12 01:10:22;;;;;;;3.38;2.92;;;14.30;87.10;;;;;;10393822;28;20361;-83
2023/06/12 01:15:25;;;;;;;5.68;2.83;;;14.30;87.30;;;;;;10285518;28;20237;-83
2023/06/12 01:20:28;;;;;;;6.03;3.03;;;14.50;86.70;;;;;;10286201;28;20300;-83
2023/06/12 01:25:54;;;;;;;4.47;2.78;;;14.40;86.90;;;;;;10268262;28;20288;-83
2023/06/12 01:31:28;;;;;;;4.88;2.55;;;14.40;87.20;;;;;;10282739;28;20347;-83
2023/06/12 01:36:36;;;;;;;4.25;3.35;;;14.30;85.10;;;;;;10267227;28;20268;-83
2023/06/12 01:41:41;;;;;;;9.85;3.30;;;14.10;82.20;;;;;;10268587;28;20265;-83
2023/06/12 01:46:44;;;;;;;4.10;3.65;;;14.00;90.30;;;;;;10268278;28;20242;-83
2023/06/12 01:51:46;;;;;;;7.47;3.75;;;13.90;88.00;;;;;;10345145;28;20243;-83
2023/06/12 01:56:49;;;;;;;12.98;3.75;;;13.90;90.20;;;;;;10392616;28;20286;-83
2023/06/12 02:01:52;;;;;;;6.72;3.60;;;13.70;87.40;;;;;;10391279;28;20270;-83
2023/06/12 02:06:55;;;;;;;6.95;3.58;;;13.70;86.80;;;;;;10396918;28;20274;-83
2023/06/12 02:12:00;;;;;;;6.25;3.00;;;13.60;90.80;;;;;;10391864;28;20239;-84
2023/06/12 02:17:03;;;;;;;5.18;3.60;;;13.60;91.90;;;;;;10391794;28;20243;-84
2023/06/12 02:22:07;;;;;;;5.35;3.33;;;13.40;91.20;;;;;;10390593;28;20263;-84
2023/06/12 02:27:11;;;;;;;8.35;3.45;;;13.30;91.30;;;;;;10409516;28;20219;-83
2023/06/12 02:32:14;;;;;;;6.45;3.72;;;13.20;91.90;;;;;;10390139;28;20259;-83
2023/06/12 02:37:17;;;;;;;5.25;3.78;;;13.30;95.00;;;;;;10406813;28;20301;-84
2023/06/12 02:42:23;;;;;;;4.43;3.58;;;13.20;93.70;;;;;;10390305;28;20296;-84
2023/06/12 02:47:26;;;;;;;5.40;3.85;;;13.00;93.10;;;;;;10407546;28;20211;-84
2023/06/12 02:52:29;;;;;;;4.47;3.63;;;13.00;92.90;;;;;;10373880;28;20243;-84
2023/06/12 02:57:33;;;;;;;3.45;3.13;;;13.00;97.00;;;;;;10406215;28;20309;-84
2023/06/12 03:02:36;;;;;;;4.47;3.17;;;13.00;94.60;;;;;;10406497;28;20778;-84
2023/06/12 03:07:42;;;;;;;8.82;3.63;;;12.90;96.10;;;;;;10389696;28;20297;-83
2023/06/12 03:12:48;;;;;;;5.45;3.75;;;12.90;95.90;;;;;;10389081;28;20239;-84
2023/06/12 03:17:50;;;;;;;4.47;3.45;;;13.10;97.00;;;;;;10408216;28;20276;-84
2023/06/12 03:22:53;;;;;;;5.78;2.95;;;13.10;97.30;;;;;;10406731;28;20321;-84
2023/06/12 03:27:56;;;;;;;5.40;3.72;;;13.00;96.80;;;;;;10407814;28;20676;-84
2023/06/12 03:32:59;;;;;;;9.60;5.05;;;13.20;98.00;;;;;;10405941;28;20308;-83
2023/06/12 03:38:02;;;;;;;15.70;3.92;;;13.00;96.10;;;;;;10389612;28;20216;-83
2023/06/12 03:43:05;;;;;;;26.13;5.70;;;13.00;98.30;;;;;;10407531;28;20301;-83
2023/06/12 03:48:08;;;;;;;11.23;3.65;;;13.30;99.20;;;;;;10389540;28;20271;-83
2023/06/12 03:53:13;;;;;;;6.40;4.00;;;13.40;99.40;;;;;;10409243;28;20204;-83
2023/06/12 03:58:16;;;;;;;6.88;4.68;;;13.50;97.80;;;;;;10388657;28;20290;-83
2023/06/12 04:03:20;;;;;;;5.90;3.85;;;13.70;98.00;;;;;;10397883;28;20301;-83
2023/06/12 04:08:25;;;;;;;2.78;2.47;;;13.80;99.60;;;;;;10412891;28;20227;-84
2023/06/12 04:13:27;;;;;;;10.45;4.07;;;14.10;99.90;;;;;;10413577;28;20255;-83
2023/06/12 04:18:30;;;;;;;7.40;4.60;;;14.50;99.70;;;;;;10414135;28;20621;-83
2023/06/12 04:23:37;;;;;;;6.07;4.50;;;14.70;98.30;;;;;;10400074;28;20716;-83
2023/06/12 04:28:41;;;;;;;2.53;2.30;;;15.00;98.70;;;;;;10395763;28;20250;-84
2023/06/12 04:33:45;;;;;;;10.85;5.25;;;15.20;99.40;;;;;;10413368;28;20263;-83
2023/06/12 04:38:50;;;;;;;4.25;2.42;;;15.40;96.30;;;;;;10412881;28;20239;-83
2023/06/12 04:44:00;;;;;;;4.10;2.90;;;15.60;98.80;;;;;;10386784;28;20721;-83
2023/06/12 04:49:08;;;;;;;10.77;3.63;;;15.70;97.00;;;;;;10397645;28;20626;-83
2023/06/12 04:54:13;;;;;;;3.30;2.75;;;16.00;97.30;;;;;;10410680;28;20227;-84
2023/06/12 04:59:16;;;;;;;5.30;3.78;;;16.30;97.20;;;;;;10372762;28;20228;-84
2023/06/12 05:04:22;;;;;;;6.07;5.10;;;16.40;95.60;;;;;;10417387;28;20799;-84
2023/06/12 05:09:25;;;;;;;5.55;3.63;;;16.70;94.60;;;;;;10399044;28;20291;-83
2023/06/12 05:14:32;;;;;;;5.05;2.95;;;16.80;93.90;;;;;;10407189;28;20285;-84
2023/06/12 05:19:40;;;;;;;6.88;4.95;;;17.00;93.90;;;;;;10417130;28;20227;-84
2023/06/12 05:24:43;;;;;;;10.25;6.50;;;17.20;91.40;;;;;;10375290;28;20268;-83
2023/06/12 05:29:45;;;;;;;2.20;1.77;;;17.50;90.70;;;;;;10406129;28;20251;-83
2023/06/12 05:34:48;;;;;;;7.32;4.47;;;17.80;91.50;;;;;;10419803;28;20262;-84
2023/06/12 05:39:53;;;;;;;12.00;5.13;;;18.10;90.40;;;;;;10411077;28;20231;-84
2023/06/12 05:44:58;;;;;;;12.05;4.70;;;18.20;85.60;;;;;;10389748;28;20314;-83
2023/06/12 05:50:01;;;;;;;11.95;5.72;;;18.80;95.50;;;;;;10405078;28;20227;-84
2023/06/12 05:55:05;;;;;;;8.35;5.00;;;18.70;92.80;;;;;;10407128;28;20283;-84
2023/06/12 06:00:11;;;;;;;11.57;6.57;;;19.20;77.90;;;;;;10409210;28;20238;-85
2023/06/12 06:05:17;;;;;;;11.52;5.57;;;19.40;73.00;;;;;;10409477;28;20259;-84
2023/06/12 06:10:20;;;;;;;8.35;5.00;;;19.60;72.40;;;;;;10415640;28;20231;-83
2023/06/12 06:15:24;;;;;;;14.02;5.88;;;19.80;70.90;;;;;;10390468;28;20232;-84
2023/06/12 06:20:28;;;;;;;13.10;6.03;;;19.90;70.20;;;;;;10390740;28;20685;-84
2023/06/12 06:25:31;;;;;;;7.97;4.95;;;20.20;68.40;;;;;;10412288;28;20255;-84
2023/06/12 06:30:34;;;;;;;6.13;5.38;;;20.30;67.50;;;;;;10390555;28;20816;-84
2023/06/12 06:35:39;;;;;;;8.77;5.40;;;;;;;;;;10407949;28;20753;-84
2023/06/12 06:40:41;;;;;;;10.20;5.95;;;20.70;64.20;;;;;;10407976;28;20285;-84
2023/06/12 06:45:44;;;;;;;6.38;5.43;;;20.80;63.90;;;;;;10407816;28;20916;-84
2023/06/12 06:50:48;;;;;;;7.13;4.63;;;20.80;62.30;;;;;;10375169;28;20609;-84
2023/06/12 06:55:50;;;;;;;5.90;4.53;;;20.80;61.50;;;;;;10390557;28;20245;-84
2023/06/12 07:00:54;;;;;;;10.48;4.88;;;20.90;61.40;;;;;;10389841;28;20239;-84
2023/06/12 07:05:57;;;;;;;6.97;4.50;;;21.00;60.70;;;;;;10389040;28;20254;-84
2023/06/12 07:11:00;;;;;;;7.47;4.70;;;21.20;57.00;;;;;;10408742;28;20262;-84
2023/06/12 07:16:04;;;;;;;6.53;4.70;;;21.40;56.30;;;;;;10390797;28;20609;-84
2023/06/12 07:21:06;;;;;;;8.45;4.10;;;21.50;55.90;;;;;;10390544;28;20290;-84
2023/06/12 07:26:12;;;;;;;6.65;4.30;;;21.70;53.80;;;;;;10406903;28;20339;-84
2023/06/12 07:31:32;;;;;;;4.60;4.18;;;21.80;50.20;;;;;;10389662;28;20298;-82
2023/06/12 07:36:36;;;;;;;8.85;4.68;;;22.00;49.80;;;;;;10397147;28;20247;-83
2023/06/12 07:41:42;;;;;;;9.98;3.88;;;22.10;45.30;;;;;;10397880;28;20768;-84
2023/06/12 07:46:45;;;;;;;4.15;3.85;;;22.30;44.20;;;;;;10390438;28;20219;-84
2023/06/12 07:51:49;;;;;;;4.93;4.07;;;;;;;;;;10397981;28;20269;-84
2023/06/12 07:56:56;;;;;;;9.30;3.85;;;22.80;41.20;;;;;;10415916;28;20250;-84
2023/06/12 08:02:00;;;;;;;5.72;3.35;;;23.00;30.00;;;;;;10395728;28;20274;-83
2023/06/12 08:07:03;;;;;;;9.63;3.50;;;22.90;32.10;;;;;;10388644;28;20377;-84
2023/06/12 08:12:07;;;;;;;3.65;3.08;;;;;;;;;;10405461;28;20305;-84
2023/06/12 08:17:11;;;;;;;4.57;2.80;;;23.90;26.40;;;;;;10395225;28;20235;-84
2023/06/12 08:22:15;;;;;;;3.78;3.28;;;23.90;19.80;;;;;;10400684;28;20258;-83
2023/06/12 08:27:18;;;;;;;4.82;2.92;;;23.70;25.60;;;;;;10386985;28;20239;-83
2023/06/12 08:32:22;;;;;;;9.48;3.72;;;23.50;21.60;;;;;;10409218;28;20667;-84
2023/06/12 08:37:24;;;;;;;3.92;3.08;;;23.60;19.00;;;;;;10394770;28;20650;-84
2023/06/12 08:42:27;;;;;;;4.15;3.30;;;23.80;22.90;;;;;;10393236;28;20263;-84
2023/06/12 08:47:37;;;;;;;4.93;2.72;;;23.90;21.10;;;;;;10410562;28;20239;-84
2023/06/12 08:52:41;;;;;;;6.65;2.65;;;24.00;16.90;;;;;;10413218;28;20293;-84
2023/06/12 08:57:45;;;;;;;3.83;2.78;;;23.50;17.50;;;;;;10412988;28;20266;-84
2023/06/12 09:02:54;;;;;;;5.45;2.80;;;23.70;19.40;;;;;;10412151;28;20309;-84
2023/06/12 09:08:01;;;;;;;4.03;3.58;;;24.10;16.80;;;;;;10409147;28;20293;-84
2023/06/12 09:13:09;;;;;;;4.00;3.70;;;24.30;16.10;;;;;;10384774;28;20687;-84
2023/06/12 09:18:13;;;;;;;10.30;2.97;;;24.20;19.50;;;;;;10406796;28;20303;-84
2023/06/12 09:23:16;;;;;;;3.08;2.70;;;24.20;12.70;;;;;;10392334;28;20261;-84
2023/06/12 09:28:24;;;;;;;3.78;2.67;;;24.30;15.60;;;;;;10434686;28;20231;-84
2023/06/12 09:33:28;;;;;;;3.13;2.67;;;24.40;16.40;;;;;;10433604;28;20721;-84
2023/06/12 09:38:31;;;;;;;8.13;3.50;;;24.50;16.50;;;;;;10407930;28;20243;-84
2023/06/12 09:43:34;;;;;;;5.50;2.17;;;24.50;19.30;;;;;;10391744;28;20255;-84
2023/06/12 09:48:41;;;;;;;4.10;3.70;;;24.40;10.90;;;;;;10409441;28;20302;-84
2023/06/12 09:53:45;;;;;;;5.05;2.10;;;24.40;17.80;;;;;;10408764;28;20239;-84
2023/06/12 09:58:49;;;;;;;3.83;2.33;;;24.40;8.70;;;;;;10407811;28;20825;-84
2023/06/12 10:03:56;;;;;;;2.67;2.47;;;24.40;13.50;;;;;;10407461;28;20285;-84
2023/06/12 10:08:59;;;;;;;3.53;3.17;;;24.40;8.00;;;;;;10408278;28;20697;-84
2023/06/12 10:14:02;;;;;;;2.50;2.30;;;24.40;16.70;;;;;;10408630;28;20644;-84
2023/06/12 10:19:06;;;;;;;6.85;2.85;;;24.50;13.20;;;;;;10406934;28;20663;-83
2023/06/12 10:24:09;;;;;;;6.38;2.75;;;24.50;9.40;;;;;;10406440;28;20702;-83
2023/06/12 10:29:29;;;;;;;4.07;2.40;;;24.60;10.00;;;;;;10408531;28;20297;-83
2023/06/12 10:34:39;;;;;;;4.65;2.05;;;24.50;9.80;;;;;;10382826;28;20275;-83
2023/06/12 10:39:46;;;;;;;7.00;3.55;;;24.60;7.60;;;;;;10366999;28;20276;-82
2023/06/12 10:44:49;;;;;;;3.35;2.42;;;24.70;12.90;;;;;;10405582;28;20282;-82
2023/06/12 10:50:01;;;;;;;6.25;2.63;;;24.70;11.60;;;;;;10387965;28;20231;-83
2023/06/12 10:55:15;;;;;;;5.15;2.45;;;24.60;6.80;;;;;;10389937;28;20640;-83
2023/06/12 11:00:20;;;;;;;5.00;2.35;;;24.60;11.80;;;;;;10406800;28;20239;-83
2023/06/12 11:05:22;;;;;;;3.65;2.38;;;24.60;7.90;;;;;;10405693;28;20327;-83
2023/06/12 11:10:26;;;;;;;4.47;2.20;;;24.70;8.90;;;;;;10406863;28;20232;-83
2023/06/12 11:15:33;;;;;;;4.53;2.75;;;24.70;7.50;;;;;;10406778;28;20740;-83
2023/06/12 11:20:36;;;;;;;3.80;2.70;;;24.70;12.40;;;;;;10400194;28;20239;-83
2023/06/12 11:25:45;;;;;;;4.57;2.67;;;24.70;11.90;;;;;;10404743;28;20284;-83
2023/06/12 11:30:50;;;;;;;5.43;2.67;;;24.80;12.50;;;;;;10405626;28;20263;-83
2023/06/12 11:36:11;;;;;;;3.25;1.20;;;24.70;8.70;;;;;;10403143;28;20269;-84
2023/06/12 11:41:13;;;;;;;3.47;2.58;;;24.70;2.90;;;;;;10405742;28;20238;-83
2023/06/12 11:46:16;;;;;;;4.90;2.63;;;24.70;14.50;;;;;;10414972;28;20258;-83
2023/06/12 11:51:19;;;;;;;5.53;2.47;;;24.80;7.60;;;;;;10446742;28;20672;-83
2023/06/12 11:56:22;;;;;;;2.33;2.13;;;24.80;2.60;;;;;;10409552;28;20808;-83
2023/06/12 12:01:32;;;;;;;2.60;2.05;;;24.80;2.00;;;;;;10405121;28;20613;-83
2023/06/12 12:06:51;;;;;;;5.30;3.30;;;24.80;6.40;;;;;;10405785;28;20270;-83
2023/06/12 12:11:54;;;;;;;5.63;3.17;;;24.80;3.00;;;;;;10404808;28;20281;-83
2023/06/12 12:17:03;;;;;;;4.63;1.90;;;24.80;11.00;;;;;;10411013;28;20270;-83
2023/06/12 12:22:09;;;;;;;6.47;2.15;;;24.70;3.40;;;;;;10412001;28;20231;-83
2023/06/12 12:27:13;;;;;;;4.93;2.88;;;24.70;2.50;;;;;;10392997;28;20267;-83
2023/06/12 12:32:15;;;;;;;2.42;2.03;;;24.90;9.70;;;;;;10395050;28;20267;-83
2023/06/12 12:37:18;;;;;;;4.00;2.90;;;24.80;7.50;;;;;;10394222;28;20274;-83
2023/06/12 12:42:20;;;;;;;8.40;2.22;;;24.90;6.20;;;;;;10409343;28;20231;-83
2023/06/12 12:47:23;;;;;;;3.03;2.80;;;24.90;5.10;;;;;;10394670;28;20639;-84
2023/06/12 12:52:26;;;;;;;4.10;2.47;;;25.00;8.30;;;;;;10410759;28;20684;-83
2023/06/12 12:57:42;;;;;;;6.47;2.97;;;24.90;7.40;;;;;;10392863;28;20243;-83
2023/06/12 13:02:45;;;;;;;4.25;2.22;;;24.90;4.50;;;;;;10410876;28;20235;-83
2023/06/12 13:07:48;;;;;;;2.03;1.83;;;25.00;3.70;;;;;;10375519;28;20317;-83
2023/06/12 13:12:52;;;;;;;3.35;2.22;;;25.00;2.40;;;;;;10410517;28;20235;-83
2023/06/12 13:17:54;;;;;;;2.22;2.03;;;25.00;5.20;;;;;;10411095;28;20995;-84
2023/06/12 13:22:57;;;;;;;2.28;1.83;;;24.90;1.10;;;;;;10411028;28;20239;-83
2023/06/12 13:28:00;;;;;;;2.75;2.55;;;24.80;1.00;;;;;;10375782;28;20658;-83
2023/06/12 13:33:02;;;;;;;3.25;2.05;;;25.00;7.20;;;;;;10409183;28;20263;-83
2023/06/12 13:38:05;;;;;;;3.25;2.67;;;25.00;2.00;;;;;;10410444;28;20235;-82
2023/06/12 13:43:08;;;;;;;3.97;2.10;;;25.20;10.20;;;;;;10409027;28;20262;-82
2023/06/12 13:48:10;;;;;;;3.35;2.38;;;25.00;1.00;;;;;;10412556;28;20690;-82
2023/06/12 13:53:13;;;;;;;5.45;2.33;;;25.10;10.40;;;;;;10405979;28;20243;-82
2023/06/12 13:58:15;;;;;;;3.08;2.35;;;25.00;1.00;;;;;;10409272;28;20227;-82
2023/06/12 14:03:18;;;;;;;2.85;1.95;;;25.00;3.40;;;;;;10409402;28;20234;-82
2023/06/12 14:08:21;;;;;;;3.80;1.80;;;25.10;7.70;;;;;;10381864;28;20633;-82
2023/06/12 14:13:23;;;;;;;2.65;2.45;;;25.10;3.50;;;;;;10381167;28;20293;-82
2023/06/12 14:18:26;;;;;;;4.03;2.50;;;25.10;10.20;;;;;;10407621;28;20227;-82
2023/06/12 14:23:28;;;;;;;3.30;2.65;;;25.10;2.90;;;;;;10483263;23;20248;-82
2023/06/12 14:28:32;;;;;;;3.30;2.45;;;25.10;5.80;;;;;;10404383;28;20277;-83
2023/06/12 14:33:35;;;;;;;3.70;2.92;;;25.10;3.60;;;;;;10386499;28;20281;-84
2023/06/12 14:38:38;;;;;;;2.58;2.35;;;25.20;11.70;;;;;;10404632;28;20206;-83
2023/06/12 14:43:42;;;;;;;7.78;2.58;;;25.10;10.40;;;;;;10422965;28;20235;-83
2023/06/12 14:48:44;;;;;;;17.38;3.45;;;25.00;4.10;;;;;;10404305;28;20230;-83
2023/06/12 14:53:47;;;;;;;3.50;2.20;;;25.00;1.00;;;;;;10389079;28;20247;-82
2023/06/12 14:58:49;;;;;;;3.15;2.63;;;24.90;5.40;;;;;;10410427;28;20230;-83
2023/06/12 15:03:52;;;;;;;8.18;3.05;;;24.90;6.80;;;;;;10445202;28;20250;-83
2023/06/12 15:08:55;;;;;;;3.00;2.80;;;24.90;1.00;;;;;;10447709;28;20247;-83
2023/06/12 15:13:57;;;;;;;4.50;2.65;;;24.90;11.40;;;;;;10423250;28;20239;-83
2023/06/12 15:19:00;;;;;;;3.63;2.17;;;24.80;3.60;;;;;;10399280;28;20278;-83
2023/06/12 15:24:02;;;;;;;3.10;2.80;;;24.70;5.10;;;;;;10054786;28;9999811;-83
2023/06/12 15:29:05;;;;;;;3.38;2.85;;;24.70;11.00;;;;;;10403314;28;20254;-83
2023/06/12 15:34:10;;;;;;;4.97;2.47;;;24.70;10.70;;;;;;10403562;28;20231;-83
2023/06/12 15:39:14;;;;;;;3.60;3.30;;;24.50;4.10;;;;;;10393359;28;20269;-83
2023/06/12 15:44:17;;;;;;;3.47;3.17;;;24.60;12.50;;;;;;10424949;28;20258;-83
2023/06/12 15:49:19;;;;;;;4.30;2.22;;;24.60;8.50;;;;;;10428507;28;20609;-83
2023/06/12 15:54:22;;;;;;;2.88;2.40;;;24.50;3.30;;;;;;10410973;28;20717;-83
2023/06/12 15:59:25;;;;;;;4.47;2.85;;;24.50;2.70;;;;;;10409339;28;20238;-83
2023/06/12 16:04:27;;;;;;;5.95;3.30;;;24.50;12.90;;;;;;10424812;28;20262;-83
2023/06/12 16:09:30;;;;;;;2.42;2.22;;;24.50;7.90;;;;;;10448013;28;20235;-83
2023/06/12 16:14:33;;;;;;;3.30;3.00;;;24.60;14.00;;;;;;10394921;28;20238;-83
2023/06/12 16:19:35;;;;;;;3.63;2.85;;;24.60;9.30;;;;;;10399049;28;20238;-83
2023/06/12 16:24:38;;;;;;;7.75;2.95;;;24.70;13.90;;;;;;10424079;28;20270;-83
2023/06/12 16:29:40;;;;;;;4.03;2.72;;;24.70;9.90;;;;;;10410699;28;20266;-83
2023/06/12 16:34:43;;;;;;;3.35;2.60;;;24.70;11.40;;;;;;10418375;28;20238;-83
2023/06/12 16:40:06;;;;;;;3.22;2.78;;;24.90;10.40;;;;;;10433080;28;20234;-83
2023/06/12 16:45:11;;;;;;;3.05;2.85;;;24.90;6.70;;;;;;10390322;28;20332;-83
2023/06/12 16:50:14;;;;;;;3.65;2.75;;;25.00;11.00;;;;;;10427684;28;20223;-84
2023/06/12 16:55:17;;;;;;;6.32;2.10;;;25.00;11.40;;;;;;10416586;28;20761;-90
2023/06/12 17:00:20;;;;;;;4.90;2.72;;;24.90;1.00;;;;;;10399155;28;20649;-90
2023/06/12 17:05:23;;;;;;;3.40;3.10;;;24.80;4.90;;;;;;10391665;28;20277;-90
2023/06/12 17:10:25;;;;;;;3.63;2.67;;;24.80;5.80;;;;;;10410871;28;20289;-90
2023/06/12 17:15:28;;;;;;;10.07;3.05;;;24.70;5.00;;;;;;10370616;28;20699;-90
2023/06/12 17:20:31;;;;;;;3.83;2.40;;;24.70;7.90;;;;;;10369962;28;20235;-91
2023/06/12 17:25:33;;;;;;;5.30;3.38;;;24.50;6.50;;;;;;10369792;28;20267;-89
2023/06/12 17:30:39;;;;;;;4.07;2.28;;;24.40;3.90;;;;;;10371534;28;20286;-91
2023/06/12 17:35:43;;;;;;;12.30;2.60;;;24.30;3.30;;;;;;10369273;28;20251;-90
2023/06/12 17:40:46;;;;;;;8.68;2.35;;;24.20;5.30;;;;;;10368930;28;20286;-92
2023/06/12 17:45:49;;;;;;;5.40;2.70;;;24.10;7.60;;;;;;10394098;28;20267;-90
2023/06/12 17:50:52;;;;;;;2.58;2.10;;;24.00;5.20;;;;;;10410698;28;20227;-90
2023/06/12 17:55:55;;;;;;;5.55;2.03;;;23.80;6.60;;;;;;10391914;28;20301;-90
2023/06/12 18:00:57;;;;;;;5.20;2.30;;;23.60;6.90;;;;;;10410515;28;20235;-90
2023/06/12 18:06:00;;;;;;;4.95;2.55;;;23.40;5.10;;;;;;10409536;28;20704;-89
2023/06/12 18:11:03;;;;;;;4.70;1.95;;;23.10;5.40;;;;;;10408851;28;20243;-91
2023/06/12 18:16:06;;;;;;;6.88;1.60;;;22.50;5.00;;;;;;10409791;28;20696;-90
2023/06/12 18:21:09;;;;;;;16.33;3.03;;;22.10;6.10;;;;;;10414695;28;20595;-83
2023/06/12 18:26:12;;;;;;;3.47;2.15;;;21.80;7.50;;;;;;10425245;28;20262;-84
2023/06/12 18:31:14;;;;;;;9.25;3.33;;;21.60;9.60;;;;;;10445295;28;20340;-84
2023/06/12 18:36:17;;;;;;;7.50;2.92;;;21.20;10.40;;;;;;10408684;28;20239;-84
2023/06/12 18:41:20;;;;;;;7.35;2.72;;;21.00;11.60;;;;;;10408866;28;20666;-84
2023/06/12 18:46:22;;;;;;;21.23;3.10;;;20.60;13.00;;;;;;10406964;28;20328;-84
2023/06/12 18:51:25;;;;;;;11.20;3.20;;;20.20;13.20;;;;;;10447462;28;20261;-85
2023/06/12 18:56:32;;;;;;;8.75;3.35;;;20.00;14.30;;;;;;10407566;28;20634;-84
2023/06/12 19:01:34;;;;;;;6.28;2.33;;;19.60;15.30;;;;;;10408751;28;20235;-84
2023/06/12 19:06:39;;;;;;;3.47;2.33;;;19.40;16.50;;;;;;10425277;28;20242;-84
2023/06/12 19:11:42;;;;;;;7.57;2.53;;;19.30;17.00;;;;;;10432510;28;20239;-86
2023/06/12 19:16:45;;;;;;;5.45;2.15;;;19.10;18.40;;;;;;10425475;28;20238;-85
2023/06/12 19:21:48;;;;;;;8.23;2.85;;;19.10;20.00;;;;;;10435875;28;20234;-85
2023/06/12 19:26:50;;;;;;;3.22;1.67;;;18.80;17.60;;;;;;10421573;28;20262;-85
2023/06/12 19:31:53;;;;;;;4.25;2.28;;;18.80;20.90;;;;;;10427110;28;20196;-86
2023/06/12 19:36:56;;;;;;;4.28;2.13;;;18.50;18.20;;;;;;10418107;28;20268;-86
2023/06/12 19:41:58;;;;;;;5.32;2.55;;;18.10;20.20;;;;;;10444686;28;20281;-85
2023/06/12 19:47:01;;;;;;;7.03;2.10;;;18.10;21.60;;;;;;10408894;28;20648;-86
2023/06/12 19:52:05;;;;;;;7.15;2.70;;;18.00;21.60;;;;;;10426843;28;20700;-86
2023/06/12 19:57:07;;;;;;;10.45;3.08;;;18.10;21.60;;;;;;10448422;28;20296;-85
2023/06/12 20:02:10;;;;;;;3.72;2.40;;;17.80;21.10;;;;;;10448053;28;20955;-85
2023/06/12 20:07:13;;;;;;;4.25;2.72;;;17.80;25.60;;;;;;10444293;28;20313;-85
2023/06/12 20:12:15;;;;;;;31.00;4.25;;;17.60;22.90;;;;;;10429813;28;20278;-85
2023/06/12 20:17:18;;;;;;;8.63;3.20;;;17.60;27.50;;;;;;10404124;28;20678;-85
2023/06/12 20:22:20;;;;;;;16.98;4.13;;;17.20;23.10;;;;;;10406979;28;20216;-85
2023/06/12 20:27:23;;;;;;;15.52;3.00;;;16.90;23.90;;;;;;10405410;28;21013;-85
2023/06/12 20:32:29;;;;;;;12.75;3.97;;;16.60;26.30;;;;;;10409866;28;20220;-85
2023/06/12 20:37:32;;;;;;;5.53;3.50;;;16.70;26.80;;;;;;10411390;28;20239;-86
2023/06/12 20:42:39;;;;;;;4.22;2.08;;;16.80;27.80;;;;;;10434822;28;20284;-85
2023/06/12 20:47:41;;;;;;;7.90;3.22;;;16.90;33.30;;;;;;10392297;28;20255;-85
2023/06/12 20:52:44;;;;;;;8.05;2.42;;;16.70;29.10;;;;;;10429051;28;20301;-85
2023/06/12 20:57:47;;;;;;;10.27;2.90;;;16.50;33.60;;;;;;10394827;28;20199;-85
2023/06/12 21:02:50;;;;;;;10.18;2.25;;;16.50;34.50;;;;;;10443054;28;20234;-86
2023/06/12 21:07:53;;;;;;;4.65;2.63;;;16.40;36.20;;;;;;10398588;28;20259;-85
2023/06/12 21:12:55;;;;;;;6.90;3.08;;;16.00;32.80;;;;;;10440546;28;20740;-85
2023/06/12 21:17:58;;;;;;;17.75;4.50;;;15.90;37.30;;;;;;10404132;28;20232;-86
2023/06/12 21:23:05;;;;;;;2.42;1.98;;;15.50;35.00;;;;;;10408218;28;20239;-85
2023/06/12 21:28:07;;;;;;;21.48;4.68;;;15.40;41.20;;;;;;10406868;28;20309;-85
2023/06/12 21:33:10;;;;;;;10.90;3.72;;;15.30;38.90;;;;;;10370494;28;20255;-85
2023/06/12 21:38:13;;;;;;;9.20;3.03;;;15.10;39.10;;;;;;10402083;28;20239;-86
2023/06/12 21:43:15;;;;;;;7.85;2.47;;;15.00;44.00;;;;;;10409174;28;20296;-85
2023/06/12 21:48:18;;;;;;;8.02;3.08;;;15.10;49.80;;;;;;10408531;28;20259;-85
2023/06/12 21:53:20;;;;;;;5.00;2.75;;;15.00;49.20;;;;;;10422086;28;20245;-86
2023/06/12 21:58:27;;;;;;;5.03;2.47;;;14.80;46.50;;;;;;10424716;28;20288;-85
2023/06/12 22:03:29;;;;;;;3.60;2.30;;;14.70;47.30;;;;;;10410640;28;20289;-85
2023/06/12 22:08:32;;;;;;;6.40;2.20;;;15.00;55.40;;;;;;10411537;28;20251;-86
2023/06/12 22:13:35;;;;;;;1.90;1.45;;;15.30;61.40;;;;;;10415219;28;20231;-86
2023/06/12 22:18:37;;;;;;;4.15;2.20;;;15.30;48.10;;;;;;10401872;28;20231;-86
2023/06/12 22:23:40;;;;;;;3.00;2.28;;;15.50;53.60;;;;;;10408965;28;20317;-87
2023/06/12 22:28:42;;;;;;;7.15;3.00;;;15.50;47.80;;;;;;10410388;28;20262;-86
2023/06/12 22:33:45;;;;;;;4.28;2.30;;;15.60;53.10;;;;;;10407896;28;20253;-86
2023/06/12 22:38:48;;;;;;;13.05;2.78;;;15.40;49.90;;;;;;10421107;28;20247;-86
2023/06/12 22:43:50;;;;;;;3.80;2.25;;;15.30;45.20;;;;;;10403358;28;20292;-86
2023/06/12 22:48:53;;;;;;;22.73;4.18;;;15.20;55.60;;;;;;10411764;28;20278;-86
2023/06/12 22:53:55;;;;;;;11.70;3.30;;;15.10;47.70;;;;;;10408210;28;20231;-86
2023/06/12 22:58:58;;;;;;;14.32;3.00;;;14.80;42.10;;;;;;10411045;28;20234;-86
2023/06/12 23:04:00;;;;;;;9.70;2.72;;;14.40;45.20;;;;;;10411468;28;20231;-86
2023/06/12 23:09:03;;;;;;;13.18;3.65;;;14.20;45.10;;;;;;10406641;28;20243;-86
2023/06/12 23:14:06;;;;;;;17.58;3.42;;;14.10;48.10;;;;;;10394492;28;20227;-85
2023/06/12 23:19:12;;;;;;;16.23;3.20;;;14.10;54.80;;;;;;10411228;28;20301;-86
2023/06/12 23:24:17;;;;;;;11.23;2.42;;;13.60;45.80;;;;;;10424931;28;20358;-86
2023/06/12 23:29:20;;;;;;;4.30;2.13;;;13.70;50.70;;;;;;10406311;28;20308;-87
2023/06/12 23:34:23;;;;;;;3.20;2.13;;;13.60;56.30;;;;;;10389408;28;20269;-87
2023/06/12 23:39:26;;;;;;;2.50;1.98;;;13.90;66.70;;;;;;10427837;28;20234;-86
2023/06/12 23:44:28;;;;;;;2.30;1.77;;;14.40;73.00;;;;;;10452159;28;20280;-87
2023/06/12 23:49:31;;;;;;;3.78;1.98;;;14.60;72.10;;;;;;10434261;28;20254;-87
2023/06/12 23:54:33;;;;;;;3.78;2.50;;;15.20;83.60;;;;;;10408053;28;20286;-87
2023/06/12 23:59:36;;;;;;;4.88;3.03;;;15.50;71.70;;;;;;10407054;28;20235;-87
